createdAt,value
2023-05-18T00:01:54.258Z,12.30
2023-05-18T00:04:24.189Z,12.20
2023-05-18T00:06:56.955Z,12.10
2023-05-18T00:09:26.009Z,12.10
2023-05-18T00:11:54.231Z,11.90
2023-05-18T00:14:22.351Z,12.00
2023-05-18T00:16:50.103Z,12.10
2023-05-18T00:19:17.862Z,12.00
2023-05-18T00:21:46.574Z,12.00
2023-05-18T00:24:15.527Z,12.00
2023-05-18T00:26:45.706Z,12.00
2023-05-18T00:29:13.830Z,12.10
2023-05-18T00:31:42.430Z,12.20
2023-05-18T00:34:12.577Z,12.10
2023-05-18T00:36:40.443Z,12.20
2023-05-18T00:39:10.419Z,12.20
2023-05-18T00:41:38.838Z,12.20
2023-05-18T00:44:07.040Z,12.20
2023-05-18T00:46:34.860Z,12.20
2023-05-18T00:49:03.091Z,12.20
2023-05-18T00:51:32.853Z,12.20
2023-05-18T00:54:03.770Z,12.20
2023-05-18T00:56:34.369Z,12.20
2023-05-18T00:59:03.567Z,12.20
2023-05-18T01:01:37.142Z,12.20
2023-05-18T01:04:05.041Z,12.20
2023-05-18T01:06:36.289Z,12.10
2023-05-18T01:09:07.312Z,12.10
2023-05-18T01:12:00.086Z,12.10
2023-05-18T01:14:41.321Z,12.00
2023-05-18T01:17:36.589Z,12.00
2023-05-18T01:20:28.171Z,12.00
2023-05-18T01:23:06.301Z,12.00
2023-05-18T01:25:48.555Z,12.00
2023-05-18T01:28:20.482Z,12.10
2023-05-18T01:30:48.632Z,12.10
2023-05-18T01:33:16.347Z,12.00
2023-05-18T01:35:50.076Z,12.00
2023-05-18T01:38:22.592Z,11.80
2023-05-18T01:41:12.135Z,12.00
2023-05-18T01:43:52.324Z,12.10
2023-05-18T01:47:08.182Z,12.10
2023-05-18T01:50:00.708Z,12.10
2023-05-18T01:52:51.476Z,12.00
2023-05-18T01:55:21.077Z,12.00
2023-05-18T01:57:51.583Z,12.00
2023-05-18T02:00:22.390Z,12.00
2023-05-18T02:02:50.792Z,12.00
2023-05-18T02:05:19.396Z,11.90
2023-05-18T02:07:48.705Z,11.90
2023-05-18T02:10:16.749Z,11.90
2023-05-18T02:12:49.245Z,11.90
2023-05-18T02:15:17.086Z,12.00
2023-05-18T02:17:44.980Z,11.90
2023-05-18T02:20:14.262Z,11.90
2023-05-18T02:22:41.952Z,11.90
2023-05-18T02:25:10.006Z,11.90
2023-05-18T02:27:37.967Z,11.90
2023-05-18T02:30:07.964Z,11.90
2023-05-18T02:32:39.068Z,11.90
2023-05-18T02:35:09.043Z,11.90
2023-05-18T02:37:40.245Z,11.90
2023-05-18T02:40:13.189Z,11.90
2023-05-18T02:42:42.575Z,11.90
2023-05-18T02:45:11.482Z,11.90
2023-05-18T02:47:40.664Z,11.90
2023-05-18T02:50:08.755Z,11.90
2023-05-18T02:52:36.857Z,11.90
2023-05-18T02:55:06.062Z,11.90
2023-05-18T02:57:57.192Z,11.90
2023-05-18T03:00:38.072Z,11.90
2023-05-18T03:03:06.060Z,12.00
2023-05-18T03:05:33.846Z,11.80
2023-05-18T03:08:02.621Z,11.80
2023-05-18T03:10:31.980Z,11.80
2023-05-18T03:12:59.856Z,11.90
2023-05-18T03:15:31.744Z,11.90
2023-05-18T03:17:59.988Z,11.90
2023-05-18T03:20:29.940Z,11.90
2023-05-18T03:22:57.998Z,12.00
2023-05-18T03:25:26.689Z,12.00
2023-05-18T03:27:55.005Z,11.90
2023-05-18T03:30:22.815Z,12.00
2023-05-18T03:32:50.783Z,12.00
2023-05-18T03:35:18.704Z,11.90
2023-05-18T03:37:46.731Z,11.90
2023-05-18T03:40:15.893Z,11.70
2023-05-18T03:42:45.646Z,11.80
2023-05-18T03:45:14.011Z,11.70
2023-05-18T03:47:43.119Z,11.80
2023-05-18T03:50:11.274Z,11.70
2023-05-18T03:52:39.786Z,11.80
2023-05-18T03:55:08.990Z,11.80
2023-05-18T03:57:37.163Z,11.60
2023-05-18T04:00:11.860Z,11.60
2023-05-18T04:02:44.858Z,11.60
2023-05-18T04:05:15.477Z,11.60
2023-05-18T04:07:46.394Z,11.60
2023-05-18T04:10:15.570Z,11.60
2023-05-18T04:12:44.448Z,11.60
2023-05-18T04:15:14.768Z,11.60
2023-05-18T04:17:46.325Z,11.40
2023-05-18T04:20:14.875Z,11.50
2023-05-18T04:22:43.735Z,11.60
2023-05-18T04:25:12.135Z,11.60
2023-05-18T04:27:42.082Z,11.60
2023-05-18T04:30:13.670Z,11.60
2023-05-18T04:32:43.461Z,11.60
2023-05-18T04:35:15.538Z,11.60
2023-05-18T04:37:43.397Z,11.60
2023-05-18T04:40:17.701Z,11.50
2023-05-18T04:42:48.513Z,11.50
2023-05-18T04:45:21.083Z,11.40
2023-05-18T04:47:54.337Z,11.40
2023-05-18T04:50:25.742Z,11.40
2023-05-18T04:52:54.149Z,11.40
2023-05-18T04:55:26.579Z,11.40
2023-05-18T04:57:57.834Z,11.50
2023-05-18T05:00:26.860Z,11.50
2023-05-18T05:02:56.336Z,11.50
2023-05-18T05:05:25.836Z,11.50
2023-05-18T05:07:54.628Z,11.30
2023-05-18T05:10:23.202Z,11.30
2023-05-18T05:12:51.184Z,11.30
2023-05-18T05:15:19.482Z,11.40
2023-05-18T05:17:48.265Z,11.20
2023-05-18T05:20:16.727Z,11.30
2023-05-18T05:22:44.974Z,11.30
2023-05-18T05:25:16.065Z,11.20
2023-05-18T05:27:43.865Z,11.20
2023-05-18T05:30:11.927Z,11.20
2023-05-18T05:32:40.961Z,11.20
2023-05-18T05:35:09.268Z,11.30
2023-05-18T05:37:37.410Z,11.30
2023-05-18T05:40:06.746Z,11.30
2023-05-18T05:42:39.266Z,11.30
2023-05-18T05:45:09.006Z,11.20
2023-05-18T05:47:44.307Z,11.20
2023-05-18T05:50:13.187Z,11.10
2023-05-18T05:52:41.172Z,11.20
2023-05-18T05:55:10.043Z,11.00
2023-05-18T05:57:39.897Z,11.00
2023-05-18T06:00:11.835Z,11.10
2023-05-18T06:02:56.817Z,11.10
2023-05-18T06:05:40.392Z,11.10
2023-05-18T06:08:10.423Z,11.20
2023-05-18T06:10:39.400Z,11.20
2023-05-18T06:13:07.592Z,11.10
2023-05-18T06:15:55.649Z,11.10
2023-05-18T06:18:25.049Z,11.10
2023-05-18T06:20:57.494Z,11.10
2023-05-18T06:23:25.151Z,11.20
2023-05-18T06:26:01.857Z,11.20
2023-05-18T06:28:32.133Z,11.30
2023-05-18T06:31:07.664Z,11.40
2023-05-18T06:33:58.107Z,11.40
2023-05-18T06:36:25.982Z,11.20
2023-05-18T06:38:53.751Z,11.30
2023-05-18T06:41:22.512Z,11.30
2023-05-18T06:43:50.911Z,11.30
2023-05-18T06:46:29.196Z,11.30
2023-05-18T06:49:17.105Z,11.40
2023-05-18T06:51:45.871Z,11.40
2023-05-18T06:54:14.560Z,11.40
2023-05-18T06:56:42.283Z,11.50
2023-05-18T06:59:10.660Z,11.50
2023-05-18T07:01:39.294Z,11.60
2023-05-18T07:04:07.885Z,11.50
2023-05-18T07:06:35.743Z,11.60
2023-05-18T07:09:04.516Z,11.60
2023-05-18T07:11:32.590Z,11.70
2023-05-18T07:14:00.360Z,11.70
2023-05-18T07:16:28.335Z,11.70
2023-05-18T07:18:58.925Z,11.80
2023-05-18T07:21:26.893Z,11.80
2023-05-18T07:23:54.700Z,11.90
2023-05-18T07:26:25.089Z,11.90
2023-05-18T07:28:52.950Z,12.00
2023-05-18T07:31:22.233Z,12.10
2023-05-18T07:33:50.011Z,12.10
2023-05-18T07:36:17.697Z,12.10
2023-05-18T07:38:45.523Z,12.20
2023-05-18T07:41:13.491Z,12.10
2023-05-18T07:43:41.335Z,12.20
2023-05-18T07:46:09.019Z,12.20
2023-05-18T07:48:37.909Z,12.20
2023-05-18T07:51:07.490Z,12.30
2023-05-18T07:53:35.232Z,12.40
2023-05-18T07:56:03.257Z,12.40
2023-05-18T07:58:31.196Z,12.30
2023-05-18T08:00:59.368Z,12.10
2023-05-18T08:03:27.244Z,12.10
2023-05-18T08:05:54.931Z,12.20
2023-05-18T08:08:22.958Z,12.20
2023-05-18T08:10:52.457Z,12.10
2023-05-18T08:13:20.176Z,12.20
2023-05-18T08:15:56.037Z,12.20
2023-05-18T08:18:31.539Z,12.30
2023-05-18T08:20:59.292Z,12.30
2023-05-18T08:23:26.996Z,12.20
2023-05-18T08:25:56.952Z,12.20
2023-05-18T08:28:24.606Z,12.20
2023-05-18T08:30:52.547Z,12.30
2023-05-18T08:33:20.261Z,12.30
2023-05-18T08:35:48.241Z,12.30
2023-05-18T08:38:17.040Z,12.20
2023-05-18T08:41:10.174Z,12.20
2023-05-18T08:43:44.124Z,12.30
2023-05-18T08:46:21.719Z,12.30
2023-05-18T08:48:53.131Z,12.30
2023-05-18T08:51:22.718Z,12.20
2023-05-18T08:53:54.409Z,12.30
2023-05-18T08:56:24.080Z,12.40
2023-05-18T08:58:56.550Z,12.40
2023-05-18T09:01:29.629Z,12.30
2023-05-18T09:03:58.305Z,12.30
2023-05-18T09:06:28.527Z,12.30
2023-05-18T09:09:04.451Z,12.30
2023-05-18T09:11:34.578Z,12.40
2023-05-18T09:14:02.829Z,12.40
2023-05-18T09:16:32.322Z,12.60
2023-05-18T09:19:00.710Z,12.70
2023-05-18T09:21:31.502Z,12.60
2023-05-18T09:24:03.344Z,12.80
2023-05-18T09:26:32.276Z,12.80
2023-05-18T09:29:00.246Z,12.90
2023-05-18T09:31:31.217Z,12.90
2023-05-18T09:34:02.646Z,13.10
2023-05-18T09:36:36.794Z,13.20
2023-05-18T09:39:13.131Z,13.20
2023-05-18T09:41:41.507Z,13.30
2023-05-18T09:52:46.403Z,13.10
2023-05-18T09:59:39.348Z,13.40
2023-05-18T10:09:16.997Z,13.30
2023-05-18T10:11:44.875Z,13.20
2023-05-18T10:14:13.033Z,13.20
2023-05-18T10:16:42.936Z,12.90
2023-05-18T10:19:12.897Z,13.00
2023-05-18T10:21:41.860Z,13.10
2023-05-18T10:24:14.202Z,13.30
2023-05-18T10:26:44.001Z,13.10
2023-05-18T10:29:12.396Z,13.10
2023-05-18T10:31:41.795Z,13.10
2023-05-18T10:34:11.711Z,13.10
2023-05-18T10:36:40.233Z,13.00
2023-05-18T10:39:09.141Z,12.90
2023-05-18T10:41:38.436Z,12.80
2023-05-18T10:44:07.624Z,12.80
2023-05-18T10:46:37.066Z,13.00
2023-05-18T10:49:13.251Z,13.00
2023-05-18T10:51:46.455Z,13.00
2023-05-18T10:54:15.036Z,13.00
2023-05-18T10:56:48.134Z,13.20
2023-05-18T10:59:16.583Z,13.20
2023-05-18T11:01:46.351Z,13.10
2023-05-18T11:04:14.282Z,13.10
2023-05-18T11:06:42.789Z,13.20
2023-05-18T11:09:23.083Z,13.10
2023-05-18T11:12:01.064Z,13.00
2023-05-18T11:14:31.171Z,13.10
2023-05-18T11:17:25.443Z,13.10
2023-05-18T11:20:09.169Z,13.10
2023-05-18T11:22:50.080Z,13.20
2023-05-18T11:25:32.700Z,13.40
2023-05-18T11:28:05.816Z,13.30
2023-05-18T11:30:40.616Z,13.30
2023-05-18T11:33:09.837Z,13.20
2023-05-18T11:35:55.930Z,13.30
2023-05-18T11:38:28.077Z,13.30
2023-05-18T11:40:59.546Z,13.20
2023-05-18T11:43:27.832Z,13.10
2023-05-18T11:45:59.221Z,13.10
2023-05-18T11:48:30.306Z,13.10
2023-05-18T11:50:58.294Z,13.40
2023-05-18T11:53:27.109Z,13.40
2023-05-18T11:55:56.797Z,13.20
2023-05-18T11:58:27.527Z,13.20
2023-05-18T12:00:56.143Z,13.30
2023-05-18T12:03:27.118Z,13.10
2023-05-18T12:06:00.426Z,13.10
2023-05-18T12:08:29.828Z,13.20
2023-05-18T12:10:58.369Z,13.20
2023-05-18T12:13:27.790Z,13.20
2023-05-18T12:15:58.811Z,13.20
2023-05-18T12:18:29.925Z,13.20
2023-05-18T12:21:22.178Z,13.20
2023-05-18T12:23:50.148Z,13.20
2023-05-18T12:26:19.810Z,13.20
2023-05-18T12:28:47.576Z,13.30
2023-05-18T12:31:18.324Z,13.20
2023-05-18T12:33:46.099Z,13.30
2023-05-18T12:36:14.761Z,13.20
2023-05-18T12:38:42.477Z,13.10
2023-05-18T12:41:10.560Z,13.10
2023-05-18T12:43:38.181Z,13.00
2023-05-18T12:46:06.201Z,13.10
2023-05-18T12:48:38.758Z,13.10
2023-05-18T12:51:08.171Z,13.20
2023-05-18T12:53:43.279Z,13.10
2023-05-18T12:56:11.862Z,13.10
2023-05-18T12:59:04.621Z,13.00
2023-05-18T13:01:44.108Z,12.90
2023-05-18T13:04:14.074Z,12.80
2023-05-18T13:06:42.660Z,12.90
2023-05-18T13:09:14.060Z,12.80
2023-05-18T13:11:47.152Z,12.90
2023-05-18T13:14:14.941Z,13.00
2023-05-18T13:19:31.853Z,13.10
2023-05-18T13:21:59.604Z,13.10
2023-05-18T13:24:27.212Z,13.00
2023-05-18T13:26:54.748Z,12.90
2023-05-18T13:29:22.357Z,12.90
2023-05-18T13:31:51.624Z,12.70
2023-05-18T13:34:19.316Z,12.70
2023-05-18T13:36:46.812Z,12.70
2023-05-18T13:39:14.418Z,12.50
2023-05-18T13:41:42.221Z,12.60
2023-05-18T13:44:09.859Z,12.80
2023-05-18T13:46:38.135Z,12.70
2023-05-18T13:49:05.936Z,12.80
2023-05-18T13:51:33.606Z,12.70
2023-05-18T13:54:01.822Z,12.60
2023-05-18T13:56:29.487Z,12.70
2023-05-18T13:58:57.102Z,12.60
2023-05-18T14:01:24.868Z,12.50
2023-05-18T14:03:52.484Z,12.60
2023-05-18T14:06:21.052Z,12.50
2023-05-18T14:08:48.541Z,12.50
2023-05-18T14:11:16.072Z,12.50
2023-05-18T14:13:43.593Z,12.50
2023-05-18T14:16:11.382Z,12.40
2023-05-18T14:18:38.952Z,12.40
2023-05-18T14:21:06.679Z,12.30
2023-05-18T14:23:34.374Z,12.20
2023-05-18T14:26:02.389Z,12.20
2023-05-18T14:28:30.507Z,12.00
2023-05-18T14:30:59.517Z,12.30
2023-05-18T14:33:27.414Z,12.30
2023-05-18T14:35:57.257Z,12.20
2023-05-18T14:38:27.165Z,12.20
2023-05-18T14:40:54.898Z,12.30
2023-05-18T14:43:22.805Z,12.50
2023-05-18T14:46:00.320Z,12.40
2023-05-18T14:48:36.087Z,12.40
2023-05-18T14:51:04.638Z,12.40
2023-05-18T14:53:32.578Z,12.50
2023-05-18T14:56:04.388Z,12.50
2023-05-18T14:58:33.065Z,12.50
2023-05-18T15:01:01.172Z,12.60
2023-05-18T15:03:29.221Z,12.50
2023-05-18T15:05:57.363Z,12.60
2023-05-18T15:08:25.226Z,12.70
2023-05-18T15:10:53.173Z,12.70
2023-05-18T15:13:20.992Z,12.50
2023-05-18T15:15:49.880Z,12.50
2023-05-18T15:18:17.513Z,12.40
2023-05-18T15:20:46.866Z,12.40
2023-05-18T15:23:14.518Z,12.40
2023-05-18T15:25:42.140Z,12.70
2023-05-18T15:28:11.317Z,12.70
2023-05-18T15:30:38.923Z,12.60
2023-05-18T15:33:06.420Z,12.40
2023-05-18T15:35:36.334Z,12.40
2023-05-18T15:38:03.827Z,12.50
2023-05-18T15:40:31.545Z,12.50
2023-05-18T15:42:59.490Z,12.60
2023-05-18T15:45:27.745Z,12.50
2023-05-18T15:47:55.577Z,12.50
2023-05-18T15:50:23.230Z,12.60
2023-05-18T15:52:51.232Z,12.50
2023-05-18T15:55:18.980Z,12.50
2023-05-18T15:57:46.855Z,12.40
2023-05-18T16:00:15.572Z,12.30
2023-05-18T16:02:43.543Z,12.40
2023-05-18T16:05:11.303Z,12.50
2023-05-18T16:07:41.206Z,12.50
2023-05-18T16:10:09.440Z,12.40
2023-05-18T16:12:37.157Z,12.40
2023-05-18T16:15:05.462Z,12.40
2023-05-18T16:17:33.113Z,12.30
2023-05-18T16:20:03.543Z,12.30
2023-05-18T16:22:31.694Z,12.10
2023-05-18T16:24:59.278Z,12.20
2023-05-18T16:27:26.877Z,12.20
2023-05-18T16:29:54.769Z,12.00
2023-05-18T16:32:22.406Z,12.10
2023-05-18T16:34:49.989Z,12.10
2023-05-18T16:37:17.590Z,12.20
2023-05-18T16:39:45.340Z,12.10
2023-05-18T16:42:13.334Z,12.00
2023-05-18T16:44:41.284Z,11.90
2023-05-18T16:47:09.012Z,11.80
2023-05-18T16:49:36.614Z,11.90
2023-05-18T16:52:05.358Z,11.90
2023-05-18T16:54:33.232Z,11.90
2023-05-18T16:57:01.629Z,12.00
2023-05-18T16:59:29.267Z,12.00
2023-05-18T17:01:57.092Z,12.00
2023-05-18T17:04:24.894Z,11.90
2023-05-18T17:06:52.861Z,11.90
2023-05-18T17:09:20.800Z,11.80
2023-05-18T17:11:48.920Z,11.80
2023-05-18T17:14:16.637Z,11.90
2023-05-18T17:16:46.357Z,12.00
2023-05-18T17:19:14.122Z,11.80
2023-05-18T17:21:42.739Z,11.90
2023-05-18T17:24:10.618Z,11.70
2023-05-18T17:26:38.660Z,11.80
2023-05-18T17:29:06.442Z,11.80
2023-05-18T17:31:34.160Z,11.90
2023-05-18T17:34:01.748Z,11.80
2023-05-18T17:36:29.424Z,11.80
2023-05-18T17:38:57.111Z,11.90
2023-05-18T17:41:26.096Z,11.80
2023-05-18T17:43:53.662Z,11.70
2023-05-18T17:46:21.328Z,11.80
2023-05-18T17:48:49.164Z,11.80
2023-05-18T17:51:17.035Z,11.70
2023-05-18T17:53:45.342Z,11.80
2023-05-18T17:56:13.136Z,11.70
2023-05-18T17:58:40.793Z,11.80
2023-05-18T18:01:09.460Z,11.90
2023-05-18T18:03:38.617Z,11.80
2023-05-18T18:06:06.887Z,11.90
2023-05-18T18:08:34.775Z,11.90
2023-05-18T18:11:03.283Z,11.80
2023-05-18T18:13:31.127Z,11.80
2023-05-18T18:16:01.843Z,11.90
2023-05-18T18:18:32.109Z,11.80
2023-05-18T18:23:44.010Z,11.70
2023-05-18T18:26:12.184Z,11.80
2023-05-18T18:28:40.450Z,11.90
2023-05-18T18:31:08.345Z,11.90
2023-05-18T18:33:40.310Z,11.90
2023-05-18T18:36:09.364Z,11.90
2023-05-18T18:38:38.012Z,11.80
2023-05-18T18:41:15.568Z,11.80
2023-05-18T18:43:45.751Z,11.80
2023-05-18T18:51:07.127Z,11.90
2023-05-18T18:53:40.094Z,11.70
2023-05-18T18:56:10.453Z,11.80
2023-05-18T19:01:31.492Z,11.80
2023-05-18T19:04:00.924Z,11.80
2023-05-18T19:06:29.537Z,12.00
2023-05-18T19:08:57.868Z,11.90
2023-05-18T19:11:29.341Z,12.00
2023-05-18T19:13:59.168Z,12.00
2023-05-18T19:16:28.639Z,12.00
2023-05-18T19:19:01.660Z,11.90
2023-05-18T19:21:31.045Z,11.90
2023-05-18T19:24:13.378Z,11.90
2023-05-18T19:26:49.484Z,11.90
2023-05-18T19:29:22.384Z,12.00
2023-05-18T19:35:24.527Z,11.90
2023-05-18T19:37:53.812Z,11.90
2023-05-18T19:40:32.457Z,12.00
2023-05-18T19:43:01.974Z,12.00
2023-05-18T19:45:30.284Z,12.00
2023-05-18T19:47:59.652Z,11.90
2023-05-18T19:50:27.515Z,11.90
2023-05-18T19:52:59.049Z,11.90
2023-05-18T19:55:27.596Z,11.80
2023-05-18T19:57:56.786Z,11.80
2023-05-18T20:00:35.150Z,11.90
2023-05-18T20:03:03.968Z,11.90
2023-05-18T20:05:32.264Z,11.90
2023-05-18T20:08:03.151Z,12.00
2023-05-18T20:10:33.084Z,12.00
2023-05-18T20:13:01.668Z,12.00
2023-05-18T20:15:30.144Z,12.10
2023-05-18T20:17:58.399Z,11.90
2023-05-18T20:20:31.067Z,12.00
2023-05-18T20:23:00.416Z,12.10
2023-05-18T20:25:28.170Z,12.10
2023-05-18T20:27:56.838Z,12.10
2023-05-18T20:30:24.488Z,12.10
2023-05-18T20:32:52.081Z,12.10
2023-05-18T20:35:20.935Z,12.20
2023-05-18T20:37:48.547Z,12.20
2023-05-18T20:40:16.174Z,12.20
2023-05-18T20:42:43.821Z,12.20
2023-05-18T20:45:12.366Z,12.10
2023-05-18T20:47:42.000Z,12.10
2023-05-18T20:50:09.896Z,12.20
2023-05-18T20:52:37.694Z,12.10
2023-05-18T20:55:05.887Z,12.10
2023-05-18T20:57:34.824Z,12.10
2023-05-18T21:00:02.984Z,12.10
2023-05-18T21:02:33.198Z,12.00
2023-05-18T21:05:02.848Z,12.20
2023-05-18T21:07:37.815Z,12.20
2023-05-18T21:10:09.661Z,12.20
2023-05-18T21:12:38.193Z,12.10
2023-05-18T21:15:06.519Z,12.10
2023-05-18T21:17:34.255Z,12.00
2023-05-18T21:20:02.247Z,12.00
2023-05-18T21:22:30.068Z,12.00
2023-05-18T21:24:57.846Z,12.10
2023-05-18T21:27:25.514Z,12.20
2023-05-18T21:29:53.128Z,12.10
2023-05-18T21:32:20.884Z,11.90
2023-05-18T21:34:48.846Z,12.00
2023-05-18T21:37:16.543Z,12.00
2023-05-18T21:39:44.546Z,12.00
2023-05-18T21:42:12.215Z,12.00
2023-05-18T21:44:39.914Z,12.10
2023-05-18T21:47:07.683Z,12.20
2023-05-18T21:49:35.604Z,12.20
2023-05-18T21:52:03.443Z,12.20
2023-05-18T21:54:33.476Z,12.20
2023-05-18T21:57:01.949Z,12.20
2023-05-18T21:59:29.591Z,12.20
2023-05-18T22:01:57.373Z,12.00
2023-05-18T22:04:25.051Z,12.20
2023-05-18T22:06:53.723Z,12.20
2023-05-18T22:09:21.695Z,12.20
2023-05-18T22:11:49.378Z,12.10
2023-05-18T22:14:18.219Z,12.10
2023-05-18T22:16:46.787Z,12.10
2023-05-18T22:19:14.564Z,12.10
2023-05-18T22:21:42.370Z,12.10
2023-05-18T22:24:09.998Z,12.00
2023-05-18T22:26:37.692Z,12.00
2023-05-18T22:29:05.389Z,12.00
2023-05-18T22:31:33.101Z,12.10
2023-05-18T22:34:00.970Z,12.10
2023-05-18T22:36:29.752Z,12.10
2023-05-18T22:38:57.827Z,12.20
2023-05-18T22:41:26.279Z,12.20
2023-05-18T22:43:53.985Z,12.10
2023-05-18T22:46:21.917Z,12.10
2023-05-18T22:48:49.584Z,12.10
2023-05-18T22:51:18.763Z,12.20
2023-05-18T22:53:46.637Z,12.10
2023-05-18T22:56:18.955Z,12.20
2023-05-18T22:58:48.014Z,12.10
2023-05-18T23:01:15.684Z,12.10
2023-05-18T23:03:43.637Z,12.20
2023-05-18T23:06:11.358Z,12.20
2023-05-18T23:08:39.384Z,12.20
2023-05-18T23:11:07.206Z,12.30
2023-05-18T23:13:37.836Z,12.00
2023-05-18T23:16:06.199Z,12.10
2023-05-18T23:18:33.966Z,12.00
2023-05-18T23:21:02.938Z,12.00
2023-05-18T23:23:30.674Z,12.10
2023-05-18T23:25:58.379Z,12.10
2023-05-18T23:28:26.028Z,12.00
2023-05-18T23:30:53.634Z,12.00
2023-05-18T23:33:21.657Z,12.00
2023-05-18T23:35:50.767Z,12.00
2023-05-18T23:38:22.102Z,12.00
2023-05-18T23:40:53.148Z,11.90
2023-05-18T23:43:21.132Z,11.90
2023-05-18T23:45:49.078Z,12.00
2023-05-18T23:48:17.049Z,12.00
2023-05-18T23:50:45.129Z,12.00
2023-05-18T23:53:15.534Z,12.00
2023-05-18T23:55:43.285Z,12.00
2023-05-18T23:58:11.479Z,12.00
